Wetterdaten: Woche 06.05.02 - 12.05.02 (KW19)
Datum Zeit Temperatur Luftfeuchte Luftdruck Regenmenge Wind Richtung Taupunkt Windchill
06.05.2002 00:00 5.3 C 88 % 1018.2 hPa 0.0 l/m 0.0 km/h (0 Bft) N 3.5 C 5.3 C
06.05.2002 01:00 4.9 C 92 % 1018.6 hPa 0.0 l/m 0.0 km/h (0 Bft) N 3.7 C 4.9 C
06.05.2002 02:00 4.6 C 93 % 1018.7 hPa 0.0 l/m 0.0 km/h (0 Bft) N 3.6 C 4.6 C
06.05.2002 03:00 3.4 C 98 % 1018.6 hPa 0.0 l/m 0.0 km/h (0 Bft) N 3.1 C 3.4 C
06.05.2002 04:00 3.6 C 100 % 1019.0 hPa 0.0 l/m 0.2 km/h (0 Bft) W-NW 3.5 C 3.6 C
06.05.2002 05:00 2.1 C 98 % 1019.0 hPa 0.0 l/m 0.0 km/h (0 Bft) N 1.8 C 2.1 C
06.05.2002 06:00 1.7 C 100 % 1019.4 hPa 0.0 l/m 0.0 km/h (0 Bft) N 1.6 C 1.7 C
06.05.2002 07:00 2.7 C 100 % 1020.1 hPa 0.0 l/m 0.1 km/h (0 Bft) N 2.7 C 2.7 C
06.05.2002 08:00 4.3 C 95 % 1020.1 hPa 0.0 l/m 0.3 km/h (0 Bft) W-NW 3.6 C 4.3 C
06.05.2002 09:00 6.3 C 84 % 1020.1 hPa 0.0 l/m 0.4 km/h (0 Bft) W 3.7 C 6.3 C
06.05.2002 10:00 8.1 C 78 % 1020.1 hPa 0.0 l/m 0.5 km/h (0 Bft) O 4.5 C 8.1 C
06.05.2002 11:00 9.3 C 74 % 1020.1 hPa 0.0 l/m 0.5 km/h (0 Bft) N-NO 4.8 C 9.3 C
06.05.2002 12:00 10.4 C 71 % 1020.1 hPa 0.0 l/m 1.1 km/h (1 Bft) O 5.4 C 10.4 C
06.05.2002 13:00 11.4 C 67 % 1020.1 hPa 0.0 l/m 2.2 km/h (1 Bft) O 5.5 C 11.4 C
06.05.2002 14:00 12.8 C 60 % 1019.5 hPa 0.0 l/m 3.1 km/h (1 Bft) O 5.3 C 12.8 C
06.05.2002 15:00 14.9 C 52 % 1019.0 hPa 0.0 l/m 3.3 km/h (1 Bft) O 5.1 C 14.9 C
06.05.2002 16:00 15.5 C 49 % 1019.0 hPa 0.0 l/m 1.1 km/h (0 Bft) NO 4.8 C 15.5 C
06.05.2002 17:00 15.4 C 51 % 1018.4 hPa 0.0 l/m 2.8 km/h (1 Bft) O 5.1 C 15.4 C
06.05.2002 18:00 14.9 C 51 % 1018.0 hPa 0.0 l/m 0.7 km/h (0 Bft) SW 4.9 C 14.9 C
06.05.2002 19:00 13.9 C 54 % 1018.3 hPa 0.0 l/m 0.1 km/h (0 Bft) N 4.9 C 13.9 C
06.05.2002 20:00 12.1 C 63 % 1018.8 hPa 0.0 l/m 0.5 km/h (0 Bft) O 5.1 C 12.1 C
06.05.2002 21:00 10.6 C 74 % 1019.0 hPa 0.0 l/m 1.5 km/h (1 Bft) N 6.2 C 10.6 C
06.05.2002 22:00 9.7 C 78 % 1019.6 hPa 0.0 l/m 0.8 km/h (0 Bft) NO 5.9 C 9.6 C
06.05.2002 23:00 8.3 C 84 % 1020.1 hPa 0.0 l/m 0.3 km/h (0 Bft) O-SO 5.8 C 8.3 C
07.05.2002 00:00 6.9 C 92 % 1020.1 hPa 0.0 l/m 0.2 km/h (0 Bft) O-SO 5.6 C 6.9 C
07.05.2002 01:00 6.0 C 94 % 1020.1 hPa 0.0 l/m 0.3 km/h (0 Bft) O-SO 5.2 C 5.9 C
07.05.2002 02:00 5.7 C 95 % 1020.0 hPa 0.0 l/m 0.6 km/h (0 Bft) SO 5.0 C 5.7 C
07.05.2002 03:00 5.7 C 95 % 1019.6 hPa 0.0 l/m 0.3 km/h (0 Bft) O 4.9 C 5.7 C
07.05.2002 04:00 5.0 C 97 % 1019.2 hPa 0.0 l/m 1.3 km/h (1 Bft) O-SO 4.6 C 4.9 C
07.05.2002 05:00 4.2 C 98 % 1019.0 hPa 0.0 l/m 0.5 km/h (0 Bft) O-SO 3.9 C 4.2 C
07.05.2002 06:00 3.9 C 100 % 1019.0 hPa 0.0 l/m 0.2 km/h (0 Bft) O 3.9 C 3.9 C
07.05.2002 07:00 5.8 C 98 % 1019.0 hPa 0.0 l/m 0.0 km/h (0 Bft) N 5.5 C 5.8 C
07.05.2002 08:00 7.3 C 91 % 1019.0 hPa 0.0 l/m 0.0 km/h (0 Bft) N 6.0 C 7.3 C
07.05.2002 09:00 10.3 C 80 % 1019.0 hPa 0.0 l/m 9.5 km/h (2 Bft) O-SO 7.0 C 9.8 C
07.05.2002 10:00 12.2 C 71 % 1018.3 hPa 0.0 l/m 6.9 km/h (2 Bft) O-SO 7.2 C 12.2 C
07.05.2002 11:00 13.9 C 66 % 1018.0 hPa 0.0 l/m 10.5 km/h (2 Bft) O-SO 7.6 C 13.9 C
07.05.2002 12:00 16.2 C 60 % 1017.2 hPa 0.0 l/m 14.1 km/h (3 Bft) O-SO 8.5 C 16.2 C
07.05.2002 13:00 18.2 C 55 % 1016.5 hPa 0.0 l/m 12.2 km/h (2 Bft) O-SO 9.0 C 18.2 C
07.05.2002 14:00 19.5 C 46 % 1015.8 hPa 0.0 l/m 7.1 km/h (2 Bft) O-SO 7.4 C 19.5 C
07.05.2002 15:00 20.7 C 43 % 1014.9 hPa 0.0 l/m 9.3 km/h (2 Bft) O-SO 7.8 C 20.7 C
07.05.2002 16:00 21.2 C 41 % 1014.7 hPa 0.0 l/m 13.3 km/h (3 Bft) O-SO 7.3 C 21.2 C
07.05.2002 17:00 21.1 C 40 % 1013.9 hPa 0.0 l/m 11.7 km/h (2 Bft) O-SO 6.9 C 21.1 C
07.05.2002 18:00 20.2 C 45 % 1013.2 hPa 0.0 l/m 7.7 km/h (2 Bft) O 7.7 C 20.2 C
07.05.2002 19:00 18.9 C 46 % 1012.8 hPa 0.0 l/m 1.3 km/h (1 Bft) NO 7.1 C 18.9 C
07.05.2002 20:00 16.6 C 52 % 1012.8 hPa 0.0 l/m 0.3 km/h (0 Bft) N-NO 6.7 C 16.6 C
07.05.2002 21:00 15.2 C 58 % 1012.8 hPa 0.0 l/m 0.2 km/h (0 Bft) N 7.0 C 15.2 C
07.05.2002 22:00 14.1 C 62 % 1012.8 hPa 0.0 l/m 1.3 km/h (1 Bft) O 7.0 C 14.1 C
07.05.2002 23:00 13.3 C 66 % 1012.5 hPa 0.0 l/m 0.2 km/h (0 Bft) O-NO 7.0 C 13.3 C
08.05.2002 00:00 13.6 C 65 % 1011.8 hPa 0.0 l/m 0.7 km/h (0 Bft) O-NO 7.1 C 13.6 C
08.05.2002 01:00 12.0 C 74 % 1011.7 hPa 0.0 l/m 0.3 km/h (0 Bft) O-SO 7.4 C 12.0 C
08.05.2002 02:00 11.4 C 79 % 1011.3 hPa 0.0 l/m 0.5 km/h (0 Bft) O-SO 7.8 C 11.4 C
08.05.2002 03:00 11.2 C 78 % 1010.8 hPa 0.0 l/m 1.4 km/h (1 Bft) O 7.5 C 11.2 C
08.05.2002 04:00 10.6 C 81 % 1010.7 hPa 0.0 l/m 1.2 km/h (1 Bft) O-SO 7.5 C 10.6 C
08.05.2002 05:00 9.7 C 87 % 1009.7 hPa 0.0 l/m 0.7 km/h (0 Bft) O-SO 7.6 C 9.7 C
08.05.2002 06:00 8.6 C 93 % 1009.7 hPa 0.0 l/m 0.1 km/h (0 Bft) N 7.5 C 8.6 C
08.05.2002 07:00 9.5 C 90 % 1009.7 hPa 0.0 l/m 0.0 km/h (0 Bft) N 7.9 C 9.5 C
08.05.2002 08:00 11.0 C 82 % 1009.7 hPa 0.0 l/m 0.0 km/h (0 Bft) N 8.0 C 11.0 C
08.05.2002 09:00 12.4 C 77 % 1009.7 hPa 0.0 l/m 0.5 km/h (0 Bft) W-NW 8.5 C 12.4 C
08.05.2002 10:00 14.9 C 68 % 1009.5 hPa 0.0 l/m 1.4 km/h (1 Bft) O-SO 9.0 C 14.9 C
08.05.2002 11:00 17.7 C 60 % 1008.7 hPa 0.0 l/m 12.0 km/h (2 Bft) O-SO 9.8 C 17.7 C
08.05.2002 12:00 18.8 C 57 % 1008.6 hPa 0.0 l/m 9.1 km/h (2 Bft) O-SO 10.0 C 18.8 C
08.05.2002 13:00 19.5 C 54 % 1007.7 hPa 0.0 l/m 12.4 km/h (3 Bft) O-SO 10.0 C 19.5 C
08.05.2002 14:00 19.3 C 54 % 1007.5 hPa 0.0 l/m 14.8 km/h (3 Bft) O-SO 9.7 C 19.3 C
08.05.2002 15:00 19.5 C 55 % 1006.6 hPa 0.0 l/m 9.1 km/h (2 Bft) O-SO 10.2 C 19.5 C
08.05.2002 16:00 19.2 C 57 % 1006.5 hPa 0.0 l/m 6.6 km/h (2 Bft) O-SO 10.4 C 19.2 C
08.05.2002 17:00 19.9 C 52 % 1005.7 hPa 0.0 l/m 3.1 km/h (1 Bft) O-SO 9.8 C 19.9 C
08.05.2002 18:00 19.3 C 56 % 1005.6 hPa 0.0 l/m 1.4 km/h (1 Bft) O-SO 10.2 C 19.3 C
08.05.2002 19:00 18.4 C 62 % 1005.6 hPa 0.0 l/m 2.7 km/h (1 Bft) O-SO 11.0 C 18.4 C
08.05.2002 20:00 17.1 C 70 % 1005.6 hPa 0.0 l/m 0.3 km/h (0 Bft) N 11.7 C 17.1 C
08.05.2002 21:00 15.6 C 79 % 1005.8 hPa 0.0 l/m 0.0 km/h (0 Bft) N 12.1 C 15.6 C
08.05.2002 22:00 14.5 C 86 % 1006.6 hPa 0.0 l/m 0.0 km/h (0 Bft) N 12.2 C 14.5 C
08.05.2002 23:00 13.6 C 89 % 1006.1 hPa 0.0 l/m 0.0 km/h (0 Bft) N 11.9 C 13.6 C
09.05.2002 00:00 13.1 C 90 % 1005.7 hPa 0.0 l/m 0.2 km/h (0 Bft) O 11.5 C 13.1 C
09.05.2002 01:00 12.7 C 92 % 1005.6 hPa 0.0 l/m 1.4 km/h (1 Bft) O-SO 11.4 C 12.7 C
09.05.2002 02:00 12.1 C 94 % 1005.6 hPa 0.0 l/m 0.4 km/h (0 Bft) O-SO 11.1 C 12.1 C
09.05.2002 03:00 11.5 C 96 % 1005.6 hPa 0.0 l/m 1.4 km/h (1 Bft) O-SO 10.9 C 11.5 C
09.05.2002 04:00 11.0 C 96 % 1005.9 hPa 0.0 l/m 3.8 km/h (1 Bft) O-SO 10.4 C 11.0 C
09.05.2002 05:00 10.3 C 97 % 1006.6 hPa 0.0 l/m 2.3 km/h (1 Bft) O-SO 9.8 C 10.3 C
09.05.2002 06:00 10.0 C 98 % 1006.6 hPa 0.0 l/m 1.2 km/h (1 Bft) O-SO 9.8 C 9.9 C
09.05.2002 07:00 10.9 C 96 % 1006.9 hPa 0.0 l/m 0.3 km/h (0 Bft) O-SO 10.4 C 10.9 C
09.05.2002 08:00 12.7 C 89 % 1007.7 hPa 0.0 l/m 0.0 km/h (0 Bft) N 10.9 C 12.7 C
09.05.2002 09:00 16.0 C 74 % 1007.7 hPa 0.0 l/m 2.1 km/h (1 Bft) O-SO 11.4 C 16.0 C
09.05.2002 10:00 18.3 C 65 % 1007.7 hPa 0.0 l/m 2.5 km/h (1 Bft) W-NW 11.6 C 18.3 C
09.05.2002 11:00 19.4 C 63 % 1007.7 hPa 0.0 l/m 5.6 km/h (1 Bft) O-SO 12.1 C 19.4 C
09.05.2002 12:00 20.6 C 59 % 1007.7 hPa 0.0 l/m 3.6 km/h (1 Bft) SO 12.2 C 20.6 C
09.05.2002 13:00 21.6 C 53 % 1007.2 hPa 0.0 l/m 5.0 km/h (1 Bft) O-SO 11.5 C 21.6 C
09.05.2002 14:00 23.0 C 45 % 1006.6 hPa 0.0 l/m 7.4 km/h (2 Bft) O-SO 10.4 C 23.0 C
09.05.2002 15:00 23.0 C 47 % 1006.6 hPa 0.0 l/m 11.8 km/h (2 Bft) SO 11.1 C 23.0 C
09.05.2002 16:00 23.4 C 44 % 1005.9 hPa 0.0 l/m 8.1 km/h (2 Bft) SO 10.5 C 23.4 C
09.05.2002 17:00 23.6 C 40 % 1005.6 hPa 0.0 l/m 9.4 km/h (2 Bft) SO 9.3 C 23.6 C
09.05.2002 18:00 23.0 C 47 % 1005.6 hPa 0.0 l/m 10.8 km/h (2 Bft) SO 11.1 C 23.0 C
09.05.2002 19:00 19.8 C 59 % 1006.4 hPa 0.0 l/m 22.0 km/h (4 Bft) NW 11.6 C 19.8 C
09.05.2002 20:00 17.1 C 64 % 1007.5 hPa 0.0 l/m 30.8 km/h (5 Bft) NW 10.4 C 17.1 C
09.05.2002 21:00 14.5 C 73 % 1009.2 hPa 0.0 l/m 21.5 km/h (4 Bft) NW 9.7 C 14.5 C
09.05.2002 22:00 13.9 C 78 % 1009.7 hPa 0.0 l/m 5.6 km/h (1 Bft) NW 10.0 C 13.9 C
09.05.2002 23:00 13.1 C 79 % 1009.8 hPa 0.0 l/m 4.1 km/h (1 Bft) W-NW 9.6 C 13.1 C
10.05.2002 00:00 12.8 C 80 % 1010.8 hPa 0.0 l/m 4.1 km/h (1 Bft) W 9.5 C 12.8 C
10.05.2002 01:00 12.5 C 84 % 1010.9 hPa 0.0 l/m 2.5 km/h (1 Bft) NW 9.9 C 12.5 C
10.05.2002 02:00 11.2 C 92 % 1010.8 hPa 0.0 l/m 0.7 km/h (0 Bft) SO 9.8 C 11.2 C
10.05.2002 03:00 10.0 C 98 % 1010.7 hPa 0.0 l/m 4.2 km/h (1 Bft) O-SO 9.7 C 9.9 C
10.05.2002 04:00 9.2 C 99 % 1010.1 hPa 0.0 l/m 2.9 km/h (1 Bft) O-SO 9.1 C 9.1 C
10.05.2002 05:00 8.0 C 100 % 1009.7 hPa 0.0 l/m 0.2 km/h (0 Bft) N 8.0 C 8.0 C
10.05.2002 06:00 7.5 C 100 % 1009.7 hPa 0.0 l/m 0.9 km/h (0 Bft) O-SO 7.5 C 7.5 C
10.05.2002 07:00 8.8 C 100 % 1009.7 hPa 0.0 l/m 0.0 km/h (0 Bft) N 8.8 C 8.8 C
10.05.2002 08:00 10.7 C 95 % 1009.7 hPa 0.0 l/m 0.1 km/h (0 Bft) N 9.9 C 10.7 C
10.05.2002 09:00 12.9 C 81 % 1009.7 hPa 0.0 l/m 0.2 km/h (0 Bft) N 9.6 C 12.9 C
10.05.2002 10:00 15.6 C 66 % 1008.7 hPa 0.0 l/m 0.9 km/h (0 Bft) SO 9.3 C 15.6 C
10.05.2002 11:00 18.1 C 56 % 1008.7 hPa 0.0 l/m 3.9 km/h (1 Bft) O-SO 9.1 C 18.1 C
10.05.2002 12:00 19.5 C 46 % 1007.9 hPa 0.0 l/m 3.7 km/h (1 Bft) W-NW 7.6 C 19.5 C
10.05.2002 13:00 21.2 C 37 % 1007.7 hPa 0.0 l/m 4.2 km/h (1 Bft) W-NW 5.9 C 21.2 C
10.05.2002 14:00 22.6 C 32 % 1006.7 hPa 0.0 l/m 4.0 km/h (1 Bft) W-NW 5.3 C 22.6 C
10.05.2002 15:00 23.7 C 30 % 1006.6 hPa 0.0 l/m 3.2 km/h (1 Bft) O-SO 5.0 C 23.7 C
10.05.2002 16:00 23.6 C 33 % 1005.6 hPa 0.0 l/m 4.7 km/h (1 Bft) O-SO 6.3 C 23.6 C
10.05.2002 17:00 23.1 C 31 % 1005.6 hPa 0.0 l/m 2.3 km/h (1 Bft) NW 4.9 C 23.1 C
10.05.2002 18:00 22.4 C 33 % 1005.6 hPa 0.0 l/m 1.8 km/h (1 Bft) NW 5.4 C 22.4 C
10.05.2002 19:00 19.1 C 50 % 1005.6 hPa 0.0 l/m 1.3 km/h (1 Bft) W-NW 8.3 C 19.1 C
10.05.2002 20:00 16.8 C 57 % 1006.1 hPa 0.0 l/m 0.1 km/h (0 Bft) N 8.4 C 16.8 C
10.05.2002 21:00 14.9 C 65 % 1006.6 hPa 0.0 l/m 0.7 km/h (0 Bft) O-SO 8.4 C 14.9 C
10.05.2002 22:00 14.0 C 70 % 1007.6 hPa 0.0 l/m 2.0 km/h (1 Bft) O-SO 8.6 C 14.0 C
10.05.2002 23:00 13.1 C 76 % 1007.7 hPa 0.0 l/m 1.6 km/h (1 Bft) O-SO 8.9 C 13.1 C
11.05.2002 00:00 12.4 C 79 % 1007.7 hPa 0.0 l/m 0.0 km/h (0 Bft) N 8.9 C 12.4 C
11.05.2002 01:00 10.9 C 89 % 1007.7 hPa 0.0 l/m 3.0 km/h (1 Bft) O-SO 9.2 C 10.9 C
11.05.2002 02:00 9.6 C 93 % 1007.7 hPa 0.0 l/m 2.2 km/h (1 Bft) O-SO 8.6 C 9.5 C
11.05.2002 03:00 9.0 C 98 % 1007.9 hPa 0.0 l/m 3.9 km/h (1 Bft) O-SO 8.7 C 8.6 C
11.05.2002 04:00 9.6 C 96 % 1008.7 hPa 0.0 l/m 1.4 km/h (1 Bft) O-SO 8.9 C 9.5 C
11.05.2002 05:00 9.9 C 97 % 1008.7 hPa 0.0 l/m 1.1 km/h (1 Bft) O-SO 9.4 C 9.9 C
11.05.2002 06:00 10.7 C 93 % 1008.7 hPa 0.0 l/m 0.6 km/h (0 Bft) O-SO 9.6 C 10.7 C
11.05.2002 07:00 11.9 C 86 % 1009.6 hPa 0.0 l/m 0.1 km/h (0 Bft) N 9.6 C 11.9 C
11.05.2002 08:00 12.8 C 81 % 1009.7 hPa 0.0 l/m 1.0 km/h (0 Bft) W 9.6 C 12.8 C
11.05.2002 09:00 14.1 C 75 % 1009.7 hPa 0.0 l/m 4.6 km/h (1 Bft) W 9.6 C 14.1 C
11.05.2002 10:00 15.2 C 69 % 1009.8 hPa 0.0 l/m 8.7 km/h (2 Bft) W-NW 9.6 C 15.2 C
11.05.2002 11:00 15.5 C 67 % 1010.0 hPa 0.0 l/m 14.7 km/h (3 Bft) NW 9.4 C 15.5 C
11.05.2002 12:00 16.5 C 62 % 1009.7 hPa 0.0 l/m 20.1 km/h (4 Bft) NW 9.3 C 16.5 C
11.05.2002 13:00 16.9 C 59 % 1009.7 hPa 0.0 l/m 16.6 km/h (3 Bft) NW 8.9 C 16.9 C
11.05.2002 14:00 16.4 C 61 % 1009.7 hPa 0.0 l/m 12.1 km/h (2 Bft) NW 8.9 C 16.4 C
11.05.2002 15:00 16.2 C 63 % 1009.7 hPa 0.0 l/m 8.0 km/h (2 Bft) W-NW 9.1 C 16.2 C
11.05.2002 16:00 16.9 C 60 % 1009.7 hPa 0.0 l/m 12.6 km/h (3 Bft) NW 9.2 C 16.9 C
11.05.2002 17:00 16.2 C 63 % 1009.7 hPa 0.0 l/m 9.7 km/h (2 Bft) NW 9.2 C 16.2 C
11.05.2002 18:00 16.0 C 68 % 1009.7 hPa 0.0 l/m 3.6 km/h (1 Bft) NW 10.0 C 16.0 C
11.05.2002 19:00 14.9 C 77 % 1010.0 hPa 0.0 l/m 1.8 km/h (1 Bft) SO 10.8 C 14.9 C
11.05.2002 20:00 14.2 C 80 % 1010.8 hPa 0.0 l/m 1.1 km/h (1 Bft) O 10.7 C 14.2 C
11.05.2002 21:00 12.7 C 85 % 1011.5 hPa 0.6 l/m 6.9 km/h (2 Bft) NW 10.2 C 12.7 C
11.05.2002 22:00 11.6 C 97 % 1011.8 hPa 3.6 l/m 0.6 km/h (0 Bft) SO 11.2 C 11.6 C
11.05.2002 23:00 11.5 C 100 % 1012.7 hPa 0.6 l/m 2.1 km/h (1 Bft) SO 11.5 C 11.5 C
12.05.2002 00:00 11.1 C 95 % 1012.8 hPa 0.0 l/m 0.5 km/h (0 Bft) NW 10.4 C 11.1 C
12.05.2002 01:00 10.6 C 95 % 1012.8 hPa 0.0 l/m 0.1 km/h (0 Bft) N 9.8 C 10.6 C
12.05.2002 02:00 10.4 C 96 % 1012.8 hPa 0.0 l/m 0.0 km/h (0 Bft) N 9.9 C 10.4 C
12.05.2002 03:00 10.6 C 95 % 1012.8 hPa 0.0 l/m 0.5 km/h (0 Bft) NW 9.8 C 10.6 C
12.05.2002 04:00 10.6 C 92 % 1012.8 hPa 0.0 l/m 1.6 km/h (1 Bft) W-NW 9.4 C 10.6 C
12.05.2002 05:00 10.2 C 93 % 1012.8 hPa 0.0 l/m 0.2 km/h (0 Bft) W-NW 9.2 C 10.2 C
12.05.2002 06:00 10.1 C 95 % 1012.8 hPa 0.0 l/m 0.2 km/h (0 Bft) NO 9.3 C 10.1 C
12.05.2002 07:00 10.6 C 95 % 1013.1 hPa 0.0 l/m 0.4 km/h (0 Bft) N 9.7 C 10.6 C
12.05.2002 08:00 11.2 C 90 % 1013.9 hPa 0.0 l/m 0.7 km/h (0 Bft) S-SO 9.6 C 11.2 C
12.05.2002 09:00 12.6 C 79 % 1013.9 hPa 0.0 l/m 8.3 km/h (2 Bft) W-NW 9.1 C 12.6 C
12.05.2002 10:00 13.5 C 72 % 1013.9 hPa 0.0 l/m 11.0 km/h (2 Bft) NW 8.6 C 13.5 C
12.05.2002 11:00 14.7 C 67 % 1013.9 hPa 0.0 l/m 5.5 km/h (1 Bft) W-NW 8.7 C 14.7 C
12.05.2002 12:00 16.0 C 61 % 1013.9 hPa 0.0 l/m 3.4 km/h (1 Bft) W-NW 8.4 C 16.0 C
12.05.2002 13:00 17.6 C 54 % 1013.9 hPa 0.0 l/m 3.9 km/h (1 Bft) NW 8.0 C 17.6 C
12.05.2002 14:00 18.8 C 51 % 1013.0 hPa 0.0 l/m 2.1 km/h (1 Bft) NW 8.3 C 18.8 C
12.05.2002 15:00 19.5 C 50 % 1012.8 hPa 0.0 l/m 1.8 km/h (1 Bft) N-NW 8.7 C 19.5 C
12.05.2002 16:00 19.2 C 52 % 1012.8 hPa 0.0 l/m 7.0 km/h (2 Bft) NW 9.1 C 19.2 C
12.05.2002 17:00 17.9 C 57 % 1012.8 hPa 0.0 l/m 3.9 km/h (1 Bft) NW 9.1 C 17.9 C
12.05.2002 18:00 16.6 C 62 % 1012.8 hPa 0.0 l/m 1.5 km/h (1 Bft) W-NW 9.3 C 16.6 C
12.05.2002 19:00 15.6 C 68 % 1013.1 hPa 0.0 l/m 2.7 km/h (1 Bft) NW 9.6 C 15.6 C
12.05.2002 20:00 13.9 C 79 % 1013.9 hPa 2.4 l/m 8.4 km/h (2 Bft) NW 10.4 C 13.9 C
12.05.2002 21:00 12.2 C 97 % 1014.8 hPa 2.4 l/m 0.1 km/h (0 Bft) N 11.6 C 12.2 C
12.05.2002 22:00 11.9 C 99 % 1015.7 hPa 2.1 l/m 0.1 km/h (0 Bft) NW 11.7 C 11.9 C
12.05.2002 23:00 11.4 C 99 % 1016.2 hPa 8.1 l/m 2.4 km/h (1 Bft) NW 11.2 C 11.4 C
Min-Datum _ 06.05.02 10.05.02 08.05.02 - 06.05.02 - 06.05.02 06.05.02
_ Min-Zeit 05:52 15:41 16:45 - 00:01 - 05:52 05:52
Minimum _ 1.2 C 27 % 1005.6 hPa - 0.0 km/h (0 Bft) - 1.1 C 1.2 C
Max-Datum _ 10.05.02 06.05.02 06.05.02 12.05.02 09.05.02 - 09.05.02 10.05.02
_ Max-Zeit 15:35 03:58 06:43 22:00 21:10 - 19:04 15:35
Maximum _ 24.6 C 100 % 1020.1 hPa 8.1 l/m 51.1 km/h
NW (7 Bft)
- 13.0 C 24.6 C
Durchschnitt _ 13.6 C 74 % 1011.8 hPa #19.8 l/m 3.7 km/h (1 Bft) O-SO 8.3 C 13.6 C

Durchschnitt Minimum Temp.12.7 C
Durchschnitt Maximum Temp.14.5 C
© Kaiko 2002